Time;durP1;ratioP1;P1;durP2;ratioP2;P2;SDS_P1;SDS_P2;PMS_P1;PMS_P2;Temp;Humidity;BMP_temperature;BMP_pressure;BME280_temperature;BME280_humidity;BME280_pressure;Samples;Min_cycle;Max_cycle;Signal;HPM_P1;HPM_P2
2023/03/08 00:00:14;;;;;;;5.73;5.13;;;3.80;90.60;;;;;;5027600;28;20199;-74
2023/03/08 00:02:40;;;;;;;6.70;5.30;;;3.80;90.20;;;;;;5034455;28;20192;-74
2023/03/08 00:05:06;;;;;;;7.03;6.07;;;3.90;90.20;;;;;;5022853;28;20257;-74
2023/03/08 00:07:32;;;;;;;6.03;5.33;;;4.00;90.10;;;;;;5027939;28;20176;-74
2023/03/08 00:09:58;;;;;;;6.88;5.97;;;4.00;90.20;;;;;;5021512;28;20208;-74
2023/03/08 00:12:24;;;;;;;6.87;5.93;;;4.00;90.20;;;;;;5030160;28;20181;-75
2023/03/08 00:14:50;;;;;;;5.68;4.63;;;3.90;90.30;;;;;;5025988;28;20368;-74
2023/03/08 00:17:17;;;;;;;6.95;4.45;;;3.90;90.30;;;;;;5037249;28;20661;-74
2023/03/08 00:19:43;;;;;;;14.57;5.30;;;4.00;90.30;;;;;;5023499;28;20223;-73
2023/03/08 00:22:09;;;;;;;6.43;5.50;;;4.10;90.20;;;;;;5024319;28;20183;-72
2023/03/08 00:24:34;;;;;;;7.07;5.65;;;4.10;90.20;;;;;;5027093;28;20761;-73
2023/03/08 00:27:00;;;;;;;6.65;5.88;;;4.00;90.30;;;;;;5021163;28;20189;-73
2023/03/08 00:29:26;;;;;;;9.40;6.40;;;4.00;90.30;;;;;;5016442;28;20584;-73
2023/03/08 00:31:51;;;;;;;5.28;4.78;;;4.00;90.30;;;;;;5035336;28;20174;-73
2023/03/08 00:34:17;;;;;;;7.15;4.22;;;3.90;90.50;;;;;;5035226;28;20181;-73
2023/03/08 00:36:42;;;;;;;6.87;5.63;;;3.90;90.50;;;;;;5027492;28;20222;-74
2023/03/08 00:39:09;;;;;;;6.57;5.33;;;4.00;90.50;;;;;;5035599;28;20204;-74
2023/03/08 00:41:35;;;;;;;7.10;5.57;;;3.80;90.80;;;;;;5037098;28;20207;-74
2023/03/08 00:44:01;;;;;;;5.28;4.60;;;3.70;90.90;;;;;;5039359;28;20246;-74
2023/03/08 00:46:26;;;;;;;5.80;4.88;;;3.60;91.00;;;;;;5033978;28;20181;-74
2023/03/08 00:48:52;;;;;;;7.13;5.93;;;3.70;91.10;;;;;;5026589;28;20205;-74
2023/03/08 00:51:19;;;;;;;8.15;5.65;;;3.70;91.10;;;;;;5036411;28;20177;-74
2023/03/08 00:53:45;;;;;;;6.68;5.70;;;3.60;91.30;;;;;;5036056;28;20188;-74
2023/03/08 00:56:11;;;;;;;5.45;4.95;;;3.50;91.60;;;;;;5030888;28;20188;-74
2023/03/08 00:58:38;;;;;;;8.80;5.82;;;3.40;91.70;;;;;;5028759;28;20211;-74
2023/03/08 01:01:05;;;;;;;11.13;5.63;;;3.40;91.60;;;;;;5037582;28;20543;-74
2023/03/08 01:03:31;;;;;;;8.23;5.22;;;3.60;91.60;;;;;;5026353;28;20181;-74
2023/03/08 01:05:58;;;;;;;7.50;5.97;;;3.60;91.70;;;;;;5027193;28;20215;-73
2023/03/08 01:08:25;;;;;;;4.90;3.88;;;3.60;91.70;;;;;;5027484;28;20541;-73
2023/03/08 01:10:56;;;;;;;7.13;3.65;;;3.80;91.50;;;;;;5044509;28;20230;-73
2023/03/08 01:13:22;;;;;;;5.82;5.25;;;3.80;91.10;;;;;;5028801;28;20660;-74
2023/03/08 01:15:48;;;;;;;3.10;2.90;;;3.90;91.10;;;;;;5029285;28;20184;-72
2023/03/08 01:18:14;;;;;;;6.80;5.15;;;4.00;90.80;;;;;;5033970;28;20195;-74
2023/03/08 01:20:39;;;;;;;4.63;4.22;;;3.90;90.70;;;;;;5032403;28;20311;-75
2023/03/08 01:23:05;;;;;;;6.20;5.23;;;3.90;90.70;;;;;;5035453;28;20208;-73
2023/03/08 01:25:30;;;;;;;5.43;4.83;;;3.80;90.60;;;;;;5031918;28;20204;-72
2023/03/08 01:27:56;;;;;;;7.63;5.63;;;3.90;90.70;;;;;;5022499;28;20177;-73
2023/03/08 01:30:22;;;;;;;3.78;3.25;;;3.80;90.60;;;;;;5038935;28;20211;-73
2023/03/08 01:32:47;;;;;;;6.15;5.32;;;3.80;90.60;;;;;;5042569;28;20214;-73
2023/03/08 01:35:13;;;;;;;5.18;4.68;;;3.90;90.50;;;;;;5035065;28;20185;-73
2023/03/08 01:37:38;;;;;;;5.10;3.78;;;3.90;90.60;;;;;;5023861;28;20208;-73
2023/03/08 01:40:05;;;;;;;5.30;4.67;;;3.90;90.60;;;;;;5037374;28;20211;-73
2023/03/08 01:42:32;;;;;;;4.70;3.93;;;4.00;90.50;;;;;;5017617;28;20190;-75
2023/03/08 01:45:00;;;;;;;7.60;4.87;;;4.00;90.50;;;;;;5037201;28;20258;-75
2023/03/08 01:47:31;;;;;;;5.78;5.18;;;4.00;90.30;;;;;;5027582;28;20647;-75
2023/03/08 01:50:02;;;;;;;6.63;4.40;;;4.00;90.30;;;;;;5032000;28;20586;-73
2023/03/08 01:52:35;;;;;;;8.90;4.73;;;4.00;90.30;;;;;;5023491;28;20185;-73
2023/03/08 01:55:06;;;;;;;5.63;4.37;;;4.10;90.20;;;;;;5038753;28;20180;-73
2023/03/08 01:57:37;;;;;;;4.53;3.60;;;4.10;90.00;;;;;;5032492;28;20185;-73
2023/03/08 02:00:08;;;;;;;4.63;4.07;;;4.20;90.00;;;;;;5028024;28;20259;-73
2023/03/08 02:02:40;;;;;;;5.43;4.60;;;4.20;90.00;;;;;;5029962;28;20180;-73
2023/03/08 02:05:08;;;;;;;5.97;4.50;;;4.20;89.90;;;;;;5039720;28;20563;-73
2023/03/08 02:07:33;;;;;;;6.03;2.92;;;4.20;90.00;;;;;;5033146;28;20218;-72
2023/03/08 02:09:59;;;;;;;3.88;3.47;;;4.20;89.80;;;;;;5021618;28;20228;-72
2023/03/08 02:12:25;;;;;;;6.27;5.13;;;4.20;90.00;;;;;;5034323;28;20184;-74
2023/03/08 02:14:52;;;;;;;7.75;5.70;;;4.20;90.00;;;;;;5037735;28;20180;-73
2023/03/08 02:17:18;;;;;;;5.63;5.03;;;4.10;89.90;;;;;;5033412;28;20643;-73
2023/03/08 02:20:15;;;;;;;6.82;5.15;;;4.10;90.00;;;;;;5023075;28;20239;-74
2023/03/08 02:22:43;;;;;;;5.55;4.22;;;4.10;90.10;;;;;;5014219;28;20590;-73
2023/03/08 02:25:24;;;;;;;6.80;4.93;;;4.20;89.90;;;;;;5027178;28;20204;-74
2023/03/08 02:27:52;;;;;;;6.78;4.88;;;4.20;89.80;;;;;;5030386;28;20180;-74
2023/03/08 02:30:29;;;;;;;5.63;4.88;;;4.10;90.00;;;;;;5041609;28;20196;-74
2023/03/08 02:32:55;;;;;;;5.47;4.05;;;4.10;90.00;;;;;;5024972;28;20185;-73
2023/03/08 02:35:20;;;;;;;5.05;3.55;;;4.20;89.70;;;;;;5028927;28;20191;-73
2023/03/08 02:37:46;;;;;;;5.80;5.00;;;4.20;89.60;;;;;;5036110;28;20180;-73
2023/03/08 02:40:12;;;;;;;7.05;5.20;;;4.20;89.70;;;;;;5026707;28;20267;-73
2023/03/08 02:42:38;;;;;;;5.50;4.47;;;4.00;90.00;;;;;;5022145;28;20660;-73
2023/03/08 02:45:05;;;;;;;5.75;5.00;;;4.00;90.10;;;;;;5024295;28;20214;-74
2023/03/08 02:47:30;;;;;;;8.75;5.22;;;3.90;90.10;;;;;;5038824;28;20187;-75
2023/03/08 02:49:56;;;;;;;6.70;4.28;;;3.80;90.30;;;;;;5026537;28;20192;-74
2023/03/08 02:52:21;;;;;;;4.60;3.83;;;3.70;90.50;;;;;;5021833;28;20537;-75
2023/03/08 02:54:47;;;;;;;5.07;4.50;;;3.70;90.40;;;;;;5032036;28;20202;-75
2023/03/08 02:57:12;;;;;;;4.93;4.43;;;3.70;90.50;;;;;;5024283;28;20177;-75
2023/03/08 02:59:38;;;;;;;6.90;5.10;;;3.70;90.50;;;;;;5027281;28;20211;-75
2023/03/08 03:02:04;;;;;;;7.37;5.63;;;3.60;90.70;;;;;;5023578;28;20566;-75
2023/03/08 03:04:31;;;;;;;8.30;5.83;;;3.50;90.90;;;;;;5027339;28;20289;-75
2023/03/08 03:06:57;;;;;;;6.97;5.10;;;3.40;91.20;;;;;;5030352;28;20541;-74
2023/03/08 03:09:22;;;;;;;6.13;5.53;;;3.30;91.50;;;;;;5022656;28;20210;-73
2023/03/08 03:11:48;;;;;;;7.27;5.83;;;3.20;91.60;;;;;;5028846;28;20251;-73
2023/03/08 03:14:14;;;;;;;9.30;5.60;;;3.20;91.90;;;;;;5038173;28;20180;-74
2023/03/08 03:16:39;;;;;;;8.90;5.35;;;3.20;91.80;;;;;;5024863;28;20641;-75
2023/03/08 03:19:05;;;;;;;6.72;5.60;;;3.30;91.80;;;;;;5031818;28;20215;-74
2023/03/08 03:21:30;;;;;;;6.32;5.28;;;3.40;91.80;;;;;;5021904;28;20247;-74
2023/03/08 03:23:56;;;;;;;8.27;5.90;;;3.40;91.90;;;;;;5030951;28;20184;-75
2023/03/08 03:26:24;;;;;;;6.85;5.97;;;3.40;92.00;;;;;;5024800;28;20217;-74
2023/03/08 03:28:51;;;;;;;8.73;6.32;;;3.30;92.00;;;;;;5031527;28;20201;-73
2023/03/08 03:31:21;;;;;;;7.40;6.25;;;3.30;92.00;;;;;;5031288;28;20180;-74
2023/03/08 03:33:48;;;;;;;5.75;5.10;;;3.30;92.30;;;;;;5036036;28;20702;-74
2023/03/08 03:36:16;;;;;;;6.43;5.63;;;3.40;92.00;;;;;;5025806;28;20323;-74
2023/03/08 03:38:43;;;;;;;7.05;6.10;;;3.40;92.10;;;;;;5031630;28;20203;-73
2023/03/08 03:41:11;;;;;;;6.45;5.85;;;3.40;92.30;;;;;;5024409;28;20188;-74
2023/03/08 03:43:37;;;;;;;7.38;6.15;;;3.40;92.30;;;;;;5024096;28;20301;-74
2023/03/08 03:46:06;;;;;;;7.68;5.75;;;3.50;92.20;;;;;;5026914;28;20216;-75
2023/03/08 03:48:34;;;;;;;6.40;5.47;;;3.60;92.10;;;;;;5023683;28;20188;-75
2023/03/08 03:51:02;;;;;;;7.28;5.78;;;3.60;92.10;;;;;;5023930;28;20192;-76
2023/03/08 03:53:29;;;;;;;6.18;5.40;;;3.50;92.40;;;;;;5022545;28;20185;-76
2023/03/08 03:56:01;;;;;;;6.50;5.78;;;3.40;92.80;;;;;;5029284;28;20577;-74
2023/03/08 03:58:27;;;;;;;6.45;5.63;;;3.40;92.40;;;;;;5030778;28;20599;-75
2023/03/08 04:00:52;;;;;;;7.97;6.10;;;3.40;92.50;;;;;;5028930;28;20231;-74
2023/03/08 04:03:18;;;;;;;6.72;5.40;;;3.30;92.70;;;;;;5028002;28;20659;-75
2023/03/08 04:05:43;;;;;;;7.05;5.50;;;3.30;92.60;;;;;;5030851;28;20579;-75
2023/03/08 04:08:09;;;;;;;6.35;5.38;;;3.30;92.70;;;;;;5027159;28;20180;-74
2023/03/08 04:10:34;;;;;;;7.30;6.37;;;3.30;92.70;;;;;;5034765;28;20197;-74
2023/03/08 04:13:00;;;;;;;6.25;5.35;;;3.10;92.80;;;;;;5029116;28;20192;-75
2023/03/08 04:15:26;;;;;;;8.65;6.32;;;3.10;93.40;;;;;;5026336;28;20207;-75
2023/03/08 04:17:52;;;;;;;10.48;6.28;;;3.00;93.10;;;;;;5028562;28;20188;-75
2023/03/08 04:20:18;;;;;;;8.20;5.87;;;3.00;93.30;;;;;;5019428;28;20213;-75
2023/03/08 04:22:43;;;;;;;9.23;6.00;;;2.90;93.40;;;;;;5031420;28;20625;-76
2023/03/08 04:25:09;;;;;;;9.23;6.00;;;2.70;93.70;;;;;;5026148;28;20527;-76
2023/03/08 04:27:35;;;;;;;8.00;6.00;;;2.60;94.00;;;;;;5023609;28;20181;-75
2023/03/08 04:30:01;;;;;;;6.83;5.53;;;2.40;94.40;;;;;;5023114;28;20204;-74
2023/03/08 04:32:26;;;;;;;8.83;5.53;;;2.40;94.40;;;;;;5030721;28;20181;-75
2023/03/08 04:34:52;;;;;;;7.10;5.40;;;2.50;94.60;;;;;;5033148;28;20271;-74
2023/03/08 04:37:17;;;;;;;7.72;5.50;;;2.40;94.70;;;;;;5026167;28;20203;-74
2023/03/08 04:39:43;;;;;;;7.07;5.57;;;2.50;94.70;;;;;;5023900;28;20197;-75
2023/03/08 04:42:09;;;;;;;9.63;5.70;;;2.60;94.80;;;;;;5031416;28;20559;-76
2023/03/08 04:44:34;;;;;;;7.10;5.93;;;2.70;94.50;;;;;;5026459;28;20211;-75
2023/03/08 04:47:00;;;;;;;8.23;5.88;;;2.60;94.50;;;;;;5024129;28;20168;-75
2023/03/08 04:49:26;;;;;;;8.30;5.77;;;2.70;94.40;;;;;;5013921;28;20197;-75
2023/03/08 04:51:51;;;;;;;7.70;5.90;;;2.80;94.20;;;;;;5020805;28;20239;-74
2023/03/08 04:54:17;;;;;;;8.68;6.18;;;2.90;94.30;;;;;;5030354;28;20263;-75
2023/03/08 04:56:42;;;;;;;9.00;6.37;;;3.00;94.10;;;;;;5023253;28;20177;-74
2023/03/08 04:59:08;;;;;;;6.53;5.93;;;3.00;94.00;;;;;;5024960;28;20322;-74
2023/03/08 05:01:33;;;;;;;7.30;5.95;;;3.00;93.80;;;;;;5027871;28;20665;-74
2023/03/08 05:03:59;;;;;;;7.07;5.57;;;3.10;93.90;;;;;;5024883;28;20173;-75
2023/03/08 05:06:26;;;;;;;8.57;6.30;;;3.10;93.90;;;;;;5024044;28;20571;-74
2023/03/08 05:08:53;;;;;;;7.33;6.40;;;3.10;93.70;;;;;;5022053;28;20335;-75
2023/03/08 05:11:21;;;;;;;6.82;5.50;;;3.10;93.80;;;;;;5024080;28;20176;-74
2023/03/08 05:13:47;;;;;;;7.45;6.60;;;3.00;94.30;;;;;;5021975;28;20177;-75
2023/03/08 05:16:13;;;;;;;9.67;6.07;;;2.90;94.30;;;;;;5029309;28;20187;-74
2023/03/08 05:18:39;;;;;;;7.30;5.90;;;2.90;94.30;;;;;;5029165;28;20301;-74
2023/03/08 05:21:09;;;;;;;7.03;6.00;;;2.90;94.50;;;;;;5029289;28;20263;-74
2023/03/08 05:23:35;;;;;;;10.43;7.47;;;2.90;94.40;;;;;;5031863;28;20183;-75
2023/03/08 05:26:03;;;;;;;7.47;6.25;;;2.90;94.60;;;;;;5038231;28;20291;-75
2023/03/08 05:28:30;;;;;;;9.77;6.03;;;3.00;94.10;;;;;;5037863;28;20694;-75
2023/03/08 05:31:13;;;;;;;8.05;5.90;;;3.10;93.90;;;;;;5033861;28;20176;-76
2023/03/08 05:33:39;;;;;;;6.20;5.50;;;3.30;93.60;;;;;;5030468;28;20264;-74
2023/03/08 05:36:06;;;;;;;8.02;6.18;;;3.40;93.20;;;;;;5029387;28;20188;-76
2023/03/08 05:38:32;;;;;;;8.37;5.70;;;3.40;93.10;;;;;;5027140;28;20196;-73
2023/03/08 05:41:02;;;;;;;8.23;6.45;;;3.40;93.10;;;;;;5040666;28;20199;-74
2023/03/08 05:43:27;;;;;;;9.93;7.30;;;3.50;92.90;;;;;;5038863;28;20238;-74
2023/03/08 05:45:55;;;;;;;6.47;5.80;;;3.40;93.00;;;;;;5027707;28;20223;-73
2023/03/08 05:48:20;;;;;;;7.82;5.90;;;3.30;93.10;;;;;;5028558;28;20226;-73
2023/03/08 05:50:46;;;;;;;7.57;5.97;;;3.40;93.10;;;;;;5028714;28;20603;-73
2023/03/08 05:53:11;;;;;;;7.07;6.07;;;3.40;93.60;;;;;;5027861;28;20207;-73
2023/03/08 05:55:37;;;;;;;9.40;5.30;;;3.40;93.60;;;;;;5027711;28;20203;-73
2023/03/08 05:58:03;;;;;;;10.90;6.22;;;3.40;93.50;;;;;;5029784;28;20208;-73
2023/03/08 06:00:28;;;;;;;8.90;6.40;;;3.40;93.60;;;;;;5034777;28;20220;-75
2023/03/08 06:02:54;;;;;;;8.07;6.40;;;3.40;93.60;;;;;;5045146;28;20644;-74
2023/03/08 06:05:19;;;;;;;9.40;5.93;;;3.50;93.20;;;;;;5031855;28;20289;-73
2023/03/08 06:07:45;;;;;;;9.65;6.05;;;3.50;94.00;;;;;;5035979;28;20180;-74
2023/03/08 06:10:10;;;;;;;14.65;6.55;;;3.50;94.50;;;;;;5048107;28;20196;-75
2023/03/08 06:12:36;;;;;;;7.80;5.93;;;3.60;94.50;;;;;;5023468;28;20181;-74
2023/03/08 06:15:02;;;;;;;7.75;6.50;;;3.70;94.90;;;;;;5040004;28;20722;-74
2023/03/08 06:17:27;;;;;;;9.98;6.80;;;3.80;94.30;;;;;;5033625;28;20600;-74
2023/03/08 06:19:53;;;;;;;7.65;6.07;;;3.80;94.00;;;;;;5033544;28;20217;-74
2023/03/08 06:22:19;;;;;;;7.75;6.50;;;3.90;93.90;;;;;;5028456;28;20196;-74
2023/03/08 06:24:48;;;;;;;10.23;6.55;;;3.90;94.00;;;;;;5020290;28;20225;-74
2023/03/08 06:27:14;;;;;;;6.93;5.68;;;4.00;94.00;;;;;;5030982;28;20208;-74
2023/03/08 06:29:39;;;;;;;7.68;6.22;;;4.00;93.90;;;;;;5020758;28;20296;-74
2023/03/08 06:32:06;;;;;;;8.50;6.90;;;4.10;93.90;;;;;;5028061;28;20188;-75
2023/03/08 06:34:31;;;;;;;6.60;5.78;;;4.10;93.80;;;;;;5027219;28;20189;-73
2023/03/08 06:36:58;;;;;;;8.23;5.82;;;4.10;93.90;;;;;;5029327;28;20180;-73
2023/03/08 06:39:24;;;;;;;10.43;7.65;;;4.20;93.80;;;;;;5024754;28;20247;-74
2023/03/08 06:41:50;;;;;;;14.23;7.03;;;4.20;93.90;;;;;;5023805;28;20185;-73
2023/03/08 06:44:15;;;;;;;11.90;6.55;;;4.20;93.60;;;;;;5028390;28;20226;-73
2023/03/08 06:46:41;;;;;;;11.13;7.18;;;4.30;93.50;;;;;;5038723;28;20271;-75
2023/03/08 06:49:07;;;;;;;9.82;6.43;;;4.20;93.70;;;;;;5033692;28;20199;-74
2023/03/08 06:51:32;;;;;;;10.95;6.90;;;4.30;93.80;;;;;;5030018;28;20204;-74
2023/03/08 06:53:58;;;;;;;13.18;6.88;;;4.40;93.90;;;;;;5031047;28;20180;-75
2023/03/08 06:56:25;;;;;;;10.88;6.80;;;4.40;93.90;;;;;;5031985;28;20173;-74
2023/03/08 06:58:50;;;;;;;10.07;7.20;;;4.40;93.80;;;;;;5025289;28;20201;-73
2023/03/08 07:01:16;;;;;;;7.80;6.30;;;4.50;93.70;;;;;;5024252;28;20819;-73
2023/03/08 07:03:44;;;;;;;8.95;6.28;;;4.50;93.80;;;;;;5029979;28;20180;-74
2023/03/08 07:06:09;;;;;;;12.05;6.57;;;4.60;93.80;;;;;;5028711;28;20218;-74
2023/03/08 07:08:37;;;;;;;17.83;7.40;;;4.60;93.70;;;;;;5027923;28;20194;-74
2023/03/08 07:11:03;;;;;;;10.90;6.35;;;4.70;93.80;;;;;;5030066;28;20247;-74
2023/03/08 07:13:28;;;;;;;8.05;6.78;;;4.70;94.00;;;;;;5024146;28;20397;-75
2023/03/08 07:15:55;;;;;;;8.50;6.25;;;4.70;93.90;;;;;;5022365;28;20185;-75
2023/03/08 07:18:21;;;;;;;9.77;7.13;;;4.70;93.90;;;;;;5029872;28;20777;-76
2023/03/08 07:20:54;;;;;;;12.35;6.93;;;4.80;93.80;;;;;;5035494;28;20267;-75
2023/03/08 07:23:20;;;;;;;10.65;7.10;;;4.90;93.90;;;;;;5029890;28;20188;-75
2023/03/08 07:25:46;;;;;;;8.43;6.88;;;5.00;93.80;;;;;;5030691;28;20211;-75
2023/03/08 07:28:13;;;;;;;9.75;7.07;;;5.10;93.60;;;;;;5029800;28;20227;-75
2023/03/08 07:30:38;;;;;;;8.27;7.18;;;5.10;93.70;;;;;;5030807;28;20228;-74
2023/03/08 07:33:04;;;;;;;12.30;7.60;;;5.20;93.80;;;;;;5034422;28;20168;-73
2023/03/08 07:35:29;;;;;;;13.75;7.88;;;5.30;93.70;;;;;;5023342;28;20234;-73
2023/03/08 07:37:55;;;;;;;15.52;7.20;;;5.30;93.70;;;;;;5038154;28;20184;-73
2023/03/08 07:40:21;;;;;;;11.45;7.72;;;5.30;93.60;;;;;;5026300;28;20750;-74
2023/03/08 07:42:47;;;;;;;13.75;7.95;;;5.50;93.70;;;;;;5025035;28;20653;-75
2023/03/08 07:45:13;;;;;;;8.63;7.35;;;5.60;93.70;;;;;;5031645;28;20702;-74
2023/03/08 07:47:39;;;;;;;12.75;7.10;;;5.80;93.40;;;;;;5033676;28;20848;-76
2023/03/08 07:50:06;;;;;;;14.73;8.52;;;5.90;93.40;;;;;;5026724;28;20695;-76
2023/03/08 07:52:31;;;;;;;9.52;7.28;;;5.90;93.10;;;;;;5029173;28;20188;-77
2023/03/08 07:54:57;;;;;;;8.65;7.53;;;5.80;93.10;;;;;;5025230;28;20663;-76
2023/03/08 07:57:23;;;;;;;8.05;7.18;;;5.90;93.10;;;;;;5038090;28;20750;-77
2023/03/08 07:59:49;;;;;;;7.93;7.13;;;6.00;92.70;;;;;;5030263;28;20563;-76
2023/03/08 08:02:16;;;;;;;13.32;7.03;;;6.00;92.10;;;;;;5024830;28;20181;-76
2023/03/08 08:04:41;;;;;;;8.40;7.25;;;6.20;92.20;;;;;;5032378;28;20208;-77
2023/03/08 08:07:12;;;;;;;8.15;7.18;;;6.40;91.70;;;;;;5031109;28;20172;-76
2023/03/08 08:09:38;;;;;;;8.10;6.80;;;6.50;91.20;;;;;;5032175;28;20235;-77
2023/03/08 08:12:04;;;;;;;8.95;7.88;;;6.60;90.90;;;;;;5033515;28;20208;-76
2023/03/08 08:14:30;;;;;;;10.00;7.40;;;6.70;90.90;;;;;;5031784;28;20214;-77
2023/03/08 08:16:56;;;;;;;8.70;7.57;;;6.80;90.70;;;;;;5032248;28;20179;-77
2023/03/08 08:19:22;;;;;;;10.65;7.28;;;6.90;90.70;;;;;;5022399;28;20320;-78
2023/03/08 08:21:48;;;;;;;10.55;7.80;;;7.10;90.60;;;;;;5029166;28;20451;-77
2023/03/08 08:24:13;;;;;;;11.07;8.27;;;7.30;90.30;;;;;;5026025;28;20180;-77
2023/03/08 08:26:39;;;;;;;8.82;7.30;;;7.40;90.40;;;;;;5031756;28;20640;-76
2023/03/08 08:29:05;;;;;;;11.32;6.95;;;7.70;90.30;;;;;;5027368;28;20294;-77
2023/03/08 08:31:30;;;;;;;11.70;7.95;;;8.10;89.60;;;;;;5021911;28;20262;-77
2023/03/08 08:33:57;;;;;;;11.57;7.43;;;8.40;88.40;;;;;;5026368;28;20181;-77
2023/03/08 08:36:22;;;;;;;9.25;7.35;;;8.60;88.30;;;;;;5028697;28;20188;-77
2023/03/08 08:38:48;;;;;;;10.63;8.13;;;8.60;88.10;;;;;;5028388;28;20205;-76
2023/03/08 08:41:16;;;;;;;11.27;7.35;;;8.70;87.70;;;;;;5026821;28;20263;-77
2023/03/08 08:43:44;;;;;;;10.07;8.07;;;8.60;88.30;;;;;;5023256;28;20173;-77
2023/03/08 08:46:10;;;;;;;11.32;8.57;;;8.60;88.00;;;;;;5027700;28;20573;-77
2023/03/08 08:48:37;;;;;;;10.73;8.50;;;8.60;88.20;;;;;;5024980;28;20679;-77
2023/03/08 08:51:04;;;;;;;10.38;9.23;;;8.60;86.70;;;;;;5027958;28;20254;-77
2023/03/08 08:53:30;;;;;;;10.60;8.93;;;8.60;86.00;;;;;;5030065;28;20664;-77
2023/03/08 08:55:56;;;;;;;12.70;9.50;;;8.40;85.60;;;;;;5033791;28;20190;-77
2023/03/08 08:58:22;;;;;;;10.05;9.05;;;8.30;85.40;;;;;;5030741;28;20185;-78
2023/03/08 09:00:48;;;;;;;10.82;9.20;;;8.00;87.70;;;;;;5029721;28;20247;-78
2023/03/08 09:03:14;;;;;;;10.63;8.93;;;7.90;90.20;;;;;;5030903;28;20176;-79
2023/03/08 09:05:43;;;;;;;10.02;7.90;;;7.80;91.30;;;;;;5034786;28;20203;-77
2023/03/08 09:08:10;;;;;;;27.88;9.95;;;7.60;92.00;;;;;;5037537;28;20635;-76
2023/03/08 09:10:39;;;;;;;15.07;11.25;;;7.30;94.70;;;;;;5027717;28;20208;-76
2023/03/08 09:13:05;;;;;;;14.43;10.90;;;7.10;99.40;;;;;;5035222;28;20271;-76
2023/03/08 09:15:31;;;;;;;13.23;10.60;;;6.90;97.80;;;;;;5029940;28;20181;-76
2023/03/08 09:17:56;;;;;;;14.60;11.95;;;6.50;98.60;;;;;;5033253;28;20714;-76
2023/03/08 09:20:22;;;;;;;16.15;11.98;;;6.30;98.90;;;;;;5033066;28;20265;-76
2023/03/08 09:22:48;;;;;;;16.67;11.82;;;6.20;99.90;;;;;;5033539;28;20173;-75
2023/03/08 09:25:14;;;;;;;16.30;11.48;;;6.10;99.90;;;;;;5033215;28;20207;-75
2023/03/08 09:27:41;;;;;;;15.40;10.75;;;6.00;99.90;;;;;;5028465;28;20173;-76
2023/03/08 09:30:12;;;;;;;11.57;9.85;;;5.90;99.90;;;;;;5036173;28;20272;-75
2023/03/08 09:32:37;;;;;;;14.52;10.13;;;5.80;99.90;;;;;;5037033;28;20263;-75
2023/03/08 09:35:04;;;;;;;11.85;8.68;;;5.80;99.90;;;;;;5033288;28;20215;-75
2023/03/08 09:37:30;;;;;;;12.68;10.15;;;5.80;99.90;;;;;;5025622;28;20691;-75
2023/03/08 09:39:56;;;;;;;15.63;10.90;;;5.90;99.90;;;;;;5028657;28;20218;-76
2023/03/08 09:42:23;;;;;;;12.90;9.82;;;5.90;99.90;;;;;;5034908;28;20188;-75
2023/03/08 09:44:52;;;;;;;16.35;9.52;;;5.90;99.90;;;;;;5032573;28;20213;-74
2023/03/08 09:47:51;;;;;;;11.43;10.18;;;5.80;99.90;;;;;;5035081;28;20222;-74
2023/03/08 09:50:51;;;;;;;9.90;6.22;;;5.80;99.90;;;;;;5018526;28;20235;-74
2023/03/08 09:53:53;;;;;;;13.00;10.45;;;5.80;99.90;;;;;;5025041;28;20528;-73
2023/03/08 09:56:19;;;;;;;11.15;7.15;;;5.60;99.90;;;;;;5028552;28;20242;-73
2023/03/08 09:59:03;;;;;;;12.45;10.30;;;5.60;99.90;;;;;;5025454;28;20597;-73
2023/03/08 10:01:41;;;;;;;13.07;10.90;;;5.40;99.90;;;;;;5032820;28;20664;-73
2023/03/08 10:04:28;;;;;;;14.02;10.48;;;5.40;99.90;;;;;;5023071;28;20650;-74
2023/03/08 10:07:20;;;;;;;12.95;11.05;;;5.50;99.90;;;;;;5024213;28;20208;-74
2023/03/08 10:10:10;;;;;;;12.25;10.27;;;5.60;99.90;;;;;;5030696;28;20342;-74
2023/03/08 10:12:47;;;;;;;13.50;10.82;;;5.60;99.90;;;;;;5032288;28;20180;-74
2023/03/08 10:15:18;;;;;;;11.18;9.88;;;5.50;99.90;;;;;;5030445;28;20232;-73
2023/03/08 10:17:49;;;;;;;13.50;10.95;;;5.40;99.90;;;;;;5026203;28;20324;-73
2023/03/08 10:20:18;;;;;;;14.02;10.60;;;5.40;99.90;;;;;;5020313;28;20703;-74
2023/03/08 10:22:48;;;;;;;13.85;12.18;;;5.30;99.90;;;;;;5016259;28;20247;-73
2023/03/08 10:25:30;;;;;;;16.58;11.55;;;5.10;99.90;;;;;;5017751;28;20208;-76
2023/03/08 10:27:58;;;;;;;14.05;11.30;;;4.90;99.90;;;;;;5019613;28;20672;-77
2023/03/08 10:30:31;;;;;;;18.00;11.75;;;4.80;99.90;;;;;;5018249;28;20200;-77
2023/03/08 10:32:59;;;;;;;18.77;11.93;;;4.70;99.90;;;;;;5016647;28;20291;-76
2023/03/08 10:35:36;;;;;;;14.75;12.25;;;4.60;99.90;;;;;;5016374;28;20287;-76
2023/03/08 10:38:04;;;;;;;12.50;9.75;;;4.40;99.90;;;;;;5016314;28;20192;-76
2023/03/08 10:40:29;;;;;;;16.95;12.35;;;4.30;99.90;;;;;;5018501;28;20224;-77
2023/03/08 10:42:59;;;;;;;15.10;12.55;;;4.20;99.90;;;;;;5017985;28;20188;-76
2023/03/08 10:45:27;;;;;;;17.10;12.55;;;4.10;99.90;;;;;;5018545;28;20204;-76
2023/03/08 10:48:02;;;;;;;19.45;13.43;;;4.10;99.90;;;;;;5017489;28;20184;-76
2023/03/08 10:50:30;;;;;;;20.75;13.10;;;4.10;99.90;;;;;;5020519;28;20206;-72
2023/03/08 10:53:15;;;;;;;20.08;14.00;;;4.10;99.90;;;;;;5025587;28;20263;-72
2023/03/08 10:55:49;;;;;;;18.58;13.90;;;3.90;99.90;;;;;;5030436;28;20677;-72
2023/03/08 10:58:34;;;;;;;19.02;13.63;;;3.70;99.90;;;;;;5021324;28;20194;-75
2023/03/08 11:01:31;;;;;;;22.43;14.57;;;3.40;99.90;;;;;;5020076;28;20190;-75
2023/03/08 11:04:03;;;;;;;21.70;14.67;;;3.20;99.90;;;;;;5012273;28;20582;-74
2023/03/08 11:06:29;;;;;;;20.90;13.83;;;3.10;99.90;;;;;;5014931;28;20267;-75
2023/03/08 11:08:58;;;;;;;16.93;13.20;;;3.00;99.90;;;;;;5017308;28;20204;-74
2023/03/08 11:11:24;;;;;;;18.97;13.50;;;3.10;99.90;;;;;;5016155;28;20227;-76
2023/03/08 11:13:52;;;;;;;18.35;13.93;;;3.20;99.90;;;;;;5017164;28;20181;-75
2023/03/08 11:16:39;;;;;;;19.02;14.35;;;3.20;99.90;;;;;;5015032;28;20532;-76
2023/03/08 11:19:31;;;;;;;18.33;12.93;;;3.30;99.90;;;;;;5017415;28;20212;-73
2023/03/08 11:22:12;;;;;;;18.75;13.82;;;3.30;99.90;;;;;;5023104;28;20185;-74
2023/03/08 11:24:58;;;;;;;20.15;13.02;;;3.40;99.90;;;;;;5027868;28;20203;-74
2023/03/08 11:27:43;;;;;;;17.80;13.48;;;3.40;99.90;;;;;;5033025;28;20652;-74
2023/03/08 11:30:34;;;;;;;17.98;13.30;;;3.40;99.90;;;;;;5027592;28;20200;-74
2023/03/08 11:33:25;;;;;;;17.15;13.10;;;3.60;99.90;;;;;;5017800;28;20185;-74
2023/03/08 11:36:05;;;;;;;18.05;12.80;;;3.50;99.90;;;;;;5017868;28;20880;-73
2023/03/08 11:38:32;;;;;;;16.73;13.15;;;3.60;99.90;;;;;;5018885;28;20212;-74
2023/03/08 11:41:10;;;;;;;16.73;12.88;;;3.50;99.90;;;;;;5015723;28;20181;-73
2023/03/08 11:43:45;;;;;;;18.67;14.13;;;3.70;99.90;;;;;;5019716;28;20997;-73
2023/03/08 11:46:26;;;;;;;16.33;13.13;;;3.80;99.90;;;;;;5018005;28;20206;-73
2023/03/08 11:49:01;;;;;;;18.17;14.02;;;3.80;99.90;;;;;;5016132;28;20200;-73
2023/03/08 11:51:32;;;;;;;17.48;13.07;;;3.80;99.90;;;;;;5020196;28;20175;-74
2023/03/08 11:54:17;;;;;;;14.93;12.50;;;3.80;99.90;;;;;;5019770;28;20184;-73
2023/03/08 11:56:59;;;;;;;16.45;12.80;;;3.90;99.90;;;;;;5016477;28;20276;-74
2023/03/08 11:59:36;;;;;;;16.33;13.38;;;4.00;99.90;;;;;;5014963;28;20204;-73
2023/03/08 12:02:14;;;;;;;16.15;12.77;;;4.20;99.90;;;;;;5016261;28;20401;-73
2023/03/08 12:04:59;;;;;;;15.70;12.20;;;4.20;99.90;;;;;;5015824;28;20207;-74
2023/03/08 12:07:57;;;;;;;18.25;14.00;;;4.30;99.90;;;;;;5015671;28;20181;-73
2023/03/08 12:10:32;;;;;;;18.67;12.43;;;4.30;99.90;;;;;;5014735;28;20240;-73
2023/03/08 12:13:13;;;;;;;19.80;13.63;;;4.40;99.90;;;;;;5039408;28;20180;-73
2023/03/08 12:15:58;;;;;;;16.58;13.60;;;4.50;99.90;;;;;;5014581;28;20188;-73
2023/03/08 12:18:28;;;;;;;17.02;13.02;;;4.50;99.90;;;;;;5015696;28;20192;-72
2023/03/08 12:21:15;;;;;;;15.48;12.65;;;4.60;99.90;;;;;;5021028;28;20177;-73
2023/03/08 12:24:07;;;;;;;19.45;12.93;;;4.70;99.90;;;;;;5017362;28;20664;-73
2023/03/08 12:26:41;;;;;;;18.85;12.55;;;4.80;99.90;;;;;;5012605;28;20591;-73
2023/03/08 12:29:29;;;;;;;18.80;12.88;;;4.80;99.90;;;;;;5020377;28;20208;-73
2023/03/08 12:31:55;;;;;;;16.33;13.30;;;4.90;99.90;;;;;;5023176;28;20181;-74
2023/03/08 12:34:28;;;;;;;14.32;12.57;;;5.00;99.90;;;;;;5024637;28;20682;-73
2023/03/08 12:36:54;;;;;;;14.90;11.65;;;5.00;99.90;;;;;;5023140;28;20267;-73
2023/03/08 12:39:26;;;;;;;16.52;12.80;;;5.00;99.90;;;;;;5021901;28;20633;-73
2023/03/08 12:42:17;;;;;;;16.08;12.45;;;5.10;99.90;;;;;;5021922;28;23002;-73
2023/03/08 12:44:43;;;;;;;12.98;11.27;;;5.20;99.90;;;;;;5020553;28;20305;-73
2023/03/08 12:47:12;;;;;;;15.98;12.80;;;5.10;99.90;;;;;;5030796;28;20177;-73
2023/03/08 12:49:40;;;;;;;15.93;12.68;;;5.20;99.90;;;;;;5022172;28;20200;-75
2023/03/08 12:52:18;;;;;;;16.05;13.23;;;5.20;99.90;;;;;;5023535;28;20543;-73
2023/03/08 12:54:59;;;;;;;15.35;12.98;;;5.10;99.90;;;;;;5022484;28;20188;-72
2023/03/08 12:57:30;;;;;;;17.35;13.25;;;5.00;99.90;;;;;;5021500;28;20188;-71
2023/03/08 13:00:04;;;;;;;19.48;13.45;;;5.20;99.90;;;;;;5020672;28;20208;-73